sensor_id;sensor_type;location;lat;lon;timestamp;pressure;altitude;pressure_sealevel;temperature;humidity
52935;BME280;38802;50.198;19.796;2022-12-18T00:02:25;97426.39;;;-6.22;89.57
52935;BME280;38802;50.198;19.796;2022-12-18T00:04:53;97430.11;;;-6.22;89.56
52935;BME280;38802;50.198;19.796;2022-12-18T00:07:22;97436.20;;;-6.20;89.61
52935;BME280;38802;50.198;19.796;2022-12-18T00:09:50;97439.42;;;-6.20;89.56
52935;BME280;38802;50.198;19.796;2022-12-18T00:12:18;97444.33;;;-6.19;89.66
52935;BME280;38802;50.198;19.796;2022-12-18T00:14:46;97439.26;;;-6.19;89.47
52935;BME280;38802;50.198;19.796;2022-12-18T00:17:14;97441.11;;;-6.22;89.52
52935;BME280;38802;50.198;19.796;2022-12-18T00:19:43;97449.72;;;-6.26;89.35
52935;BME280;38802;50.198;19.796;2022-12-18T00:22:11;97453.27;;;-6.30;89.32
52935;BME280;38802;50.198;19.796;2022-12-18T00:24:39;97458.84;;;-6.32;89.15
52935;BME280;38802;50.198;19.796;2022-12-18T00:27:07;97463.56;;;-6.34;89.21
52935;BME280;38802;50.198;19.796;2022-12-18T00:29:35;97466.61;;;-6.33;89.52
52935;BME280;38802;50.198;19.796;2022-12-18T00:32:03;97464.92;;;-6.29;89.32
52935;BME280;38802;50.198;19.796;2022-12-18T00:34:32;97469.15;;;-6.31;89.28
52935;BME280;38802;50.198;19.796;2022-12-18T00:37:00;97469.98;;;-6.37;89.16
52935;BME280;38802;50.198;19.796;2022-12-18T00:39:28;97470.81;;;-6.41;89.08
52935;BME280;38802;50.198;19.796;2022-12-18T00:41:56;97470.14;;;-6.40;89.28
52935;BME280;38802;50.198;19.796;2022-12-18T00:44:43;97474.70;;;-6.39;89.10
52935;BME280;38802;50.198;19.796;2022-12-18T00:47:11;97478.09;;;-6.40;89.05
52935;BME280;38802;50.198;19.796;2022-12-18T00:49:39;97480.79;;;-6.41;89.04
52935;BME280;38802;50.198;19.796;2022-12-18T00:52:07;97484.52;;;-6.41;89.13
52935;BME280;38802;50.198;19.796;2022-12-18T00:54:35;97485.19;;;-6.41;89.08
52935;BME280;38802;50.198;19.796;2022-12-18T00:57:03;97481.48;;;-6.39;89.34
52935;BME280;38802;50.198;19.796;2022-12-18T00:59:31;97486.05;;;-6.38;89.09
52935;BME280;38802;50.198;19.796;2022-12-18T01:01:59;97490.61;;;-6.36;89.16
52935;BME280;38802;50.198;19.796;2022-12-18T01:04:28;97488.92;;;-6.33;89.15
52935;BME280;38802;50.198;19.796;2022-12-18T01:06:58;97490.96;;;-6.34;89.06
52935;BME280;38802;50.198;19.796;2022-12-18T01:09:27;97493.83;;;-6.34;88.95
52935;BME280;38802;50.198;19.796;2022-12-18T01:11:55;97499.91;;;-6.37;88.96
52935;BME280;38802;50.198;19.796;2022-12-18T01:14:24;97500.25;;;-6.37;88.91
52935;BME280;38802;50.198;19.796;2022-12-18T01:16:53;97501.77;;;-6.37;88.78
52935;BME280;38802;50.198;19.796;2022-12-18T01:19:21;97503.29;;;-6.38;88.90
52935;BME280;38802;50.198;19.796;2022-12-18T01:21:49;97504.98;;;-6.36;88.82
52935;BME280;38802;50.198;19.796;2022-12-18T01:24:17;97510.23;;;-6.38;88.78
52935;BME280;38802;50.198;19.796;2022-12-18T01:26:46;97512.58;;;-6.39;88.75
52935;BME280;38802;50.198;19.796;2022-12-18T01:29:14;97511.58;;;-6.38;88.99
52935;BME280;38802;50.198;19.796;2022-12-18T01:31:42;97519.70;;;-6.35;88.98
52935;BME280;38802;50.198;19.796;2022-12-18T01:34:11;97523.44;;;-6.33;88.96
52935;BME280;38802;50.198;19.796;2022-12-18T01:36:39;97521.91;;;-6.32;88.88
52935;BME280;38802;50.198;19.796;2022-12-18T01:39:11;97524.95;;;-6.33;88.83
52935;BME280;38802;50.198;19.796;2022-12-18T01:41:42;97532.73;;;-6.33;88.92
52935;BME280;38802;50.198;19.796;2022-12-18T01:45:02;97537.14;;;-6.29;88.97
52935;BME280;38802;50.198;19.796;2022-12-18T01:47:44;97539.86;;;-6.27;89.06
52935;BME280;38802;50.198;19.796;2022-12-18T01:50:20;97538.17;;;-6.26;88.90
52935;BME280;38802;50.198;19.796;2022-12-18T01:53:12;97545.10;;;-6.27;88.90
52935;BME280;38802;50.198;19.796;2022-12-18T01:55:59;97548.66;;;-6.25;88.98
52935;BME280;38802;50.198;19.796;2022-12-18T01:58:30;97547.14;;;-6.23;88.84
52935;BME280;38802;50.198;19.796;2022-12-18T02:01:01;97551.02;;;-6.24;88.84
52935;BME280;38802;50.198;19.796;2022-12-18T02:03:33;97547.14;;;-6.23;88.99
52935;BME280;38802;50.198;19.796;2022-12-18T02:06:09;97552.73;;;-6.20;88.89
52935;BME280;38802;50.198;19.796;2022-12-18T02:08:57;97554.27;;;-6.17;88.94
52935;BME280;38802;50.198;19.796;2022-12-18T02:17:19;97569.35;;;-6.13;88.89
52935;BME280;38802;50.198;19.796;2022-12-18T02:23:07;97572.73;;;-6.11;88.96
52935;BME280;38802;50.198;19.796;2022-12-18T02:28:31;97580.86;;;-6.08;88.87
52935;BME280;38802;50.198;19.796;2022-12-18T02:31:02;97588.52;;;-6.06;88.76
52935;BME280;38802;50.198;19.796;2022-12-18T02:33:33;97594.63;;;-6.03;88.86
52935;BME280;38802;50.198;19.796;2022-12-18T02:36:04;97595.14;;;-5.98;88.91
52935;BME280;38802;50.198;19.796;2022-12-18T02:38:34;97594.14;;;-5.95;88.84
52935;BME280;38802;50.198;19.796;2022-12-18T02:41:07;97599.89;;;-5.96;88.87
52935;BME280;38802;50.198;19.796;2022-12-18T02:43:36;97602.27;;;-5.94;88.75
52935;BME280;38802;50.198;19.796;2022-12-18T02:46:45;97610.23;;;-5.91;89.04
52935;BME280;38802;50.198;19.796;2022-12-18T02:51:56;97615.47;;;-5.85;89.00
52935;BME280;38802;50.198;19.796;2022-12-18T02:57:09;97616.84;;;-5.80;89.03
52935;BME280;38802;50.198;19.796;2022-12-18T02:59:52;97617.02;;;-5.77;88.92
52935;BME280;38802;50.198;19.796;2022-12-18T03:02:48;97622.61;;;-5.75;88.87
52935;BME280;38802;50.198;19.796;2022-12-18T03:05:27;97627.02;;;-5.76;88.87
52935;BME280;38802;50.198;19.796;2022-12-18T03:08:14;97627.52;;;-5.76;88.48
52935;BME280;38802;50.198;19.796;2022-12-18T03:10:51;97634.13;;;-5.76;88.80
52935;BME280;38802;50.198;19.796;2022-12-18T03:13:39;97635.30;;;-5.76;88.72
52935;BME280;38802;50.198;19.796;2022-12-18T03:16:14;97634.13;;;-5.76;88.66
52935;BME280;38802;50.198;19.796;2022-12-18T03:18:56;97636.49;;;-5.76;88.59
52935;BME280;38802;50.198;19.796;2022-12-18T03:21:29;97636.99;;;-5.77;88.60
52935;BME280;38802;50.198;19.796;2022-12-18T03:24:02;97630.73;;;-5.76;88.68
52935;BME280;38802;50.198;19.796;2022-12-18T03:26:35;97627.00;;;-5.76;88.60
52935;BME280;38802;50.198;19.796;2022-12-18T03:29:12;97632.09;;;-5.73;88.38
52935;BME280;38802;50.198;19.796;2022-12-18T03:31:45;97639.37;;;-5.75;88.74
52935;BME280;38802;50.198;19.796;2022-12-18T03:34:21;97643.43;;;-5.74;88.76
52935;BME280;38802;50.198;19.796;2022-12-18T03:36:50;97650.39;;;-5.72;88.33
52935;BME280;38802;50.198;19.796;2022-12-18T03:39:19;97654.28;;;-5.70;88.57
52935;BME280;38802;50.198;19.796;2022-12-18T03:42:04;97657.17;;;-5.68;88.65
52935;BME280;38802;50.198;19.796;2022-12-18T03:44:49;97660.39;;;-5.67;88.55
52935;BME280;38802;50.198;19.796;2022-12-18T03:47:53;97666.00;;;-5.64;88.77
52935;BME280;38802;50.198;19.796;2022-12-18T03:50:36;97667.33;;;-5.64;88.30
52935;BME280;38802;50.198;19.796;2022-12-18T03:53:25;97667.35;;;-5.63;88.38
52935;BME280;38802;50.198;19.796;2022-12-18T03:55:58;97670.05;;;-5.64;88.29
52935;BME280;38802;50.198;19.796;2022-12-18T03:58:34;97671.40;;;-5.66;88.26
52935;BME280;38802;50.198;19.796;2022-12-18T04:01:15;97675.97;;;-5.65;88.24
52935;BME280;38802;50.198;19.796;2022-12-18T04:03:46;97682.27;;;-5.61;88.42
52935;BME280;38802;50.198;19.796;2022-12-18T04:06:19;97685.66;;;-5.61;88.64
52935;BME280;38802;50.198;19.796;2022-12-18T04:08:48;97684.16;;;-5.59;88.72
52935;BME280;38802;50.198;19.796;2022-12-18T04:11:18;97686.88;;;-5.56;88.50
52935;BME280;38802;50.198;19.796;2022-12-18T04:13:47;97690.77;;;-5.53;88.53
52935;BME280;38802;50.198;19.796;2022-12-18T04:16:19;97692.30;;;-5.52;88.38
52935;BME280;38802;50.198;19.796;2022-12-18T04:18:50;97691.11;;;-5.53;88.21
52935;BME280;38802;50.198;19.796;2022-12-18T04:21:20;97692.97;;;-5.55;88.40
52935;BME280;38802;50.198;19.796;2022-12-18T04:23:48;97694.83;;;-5.57;88.45
52935;BME280;38802;50.198;19.796;2022-12-18T04:26:17;97695.67;;;-5.57;88.50
52935;BME280;38802;50.198;19.796;2022-12-18T04:28:53;97698.39;;;-5.56;88.54
52935;BME280;38802;50.198;19.796;2022-12-18T04:31:21;97704.32;;;-5.56;88.20
52935;BME280;38802;50.198;19.796;2022-12-18T04:33:50;97707.54;;;-5.54;88.43
52935;BME280;38802;50.198;19.796;2022-12-18T04:36:18;97708.21;;;-5.54;88.53
52935;BME280;38802;50.198;19.796;2022-12-18T04:38:47;97712.27;;;-5.54;88.07
52935;BME280;38802;50.198;19.796;2022-12-18T04:41:16;97714.30;;;-5.54;88.51
52935;BME280;38802;50.198;19.796;2022-12-18T04:43:46;97712.95;;;-5.56;88.21
52935;BME280;38802;50.198;19.796;2022-12-18T04:46:14;97717.18;;;-5.56;88.26
52935;BME280;38802;50.198;19.796;2022-12-18T04:48:45;97723.12;;;-5.54;88.07
52935;BME280;38802;50.198;19.796;2022-12-18T04:51:14;97722.27;;;-5.53;88.36
52935;BME280;38802;50.198;19.796;2022-12-18T04:53:42;97725.48;;;-5.57;87.93
52935;BME280;38802;50.198;19.796;2022-12-18T04:56:13;97728.98;;;-5.63;88.03
52935;BME280;38802;50.198;19.796;2022-12-18T04:58:43;97732.86;;;-5.64;87.81
52935;BME280;38802;50.198;19.796;2022-12-18T05:01:13;97737.41;;;-5.66;88.18
52935;BME280;38802;50.198;19.796;2022-12-18T05:03:42;97737.07;;;-5.69;87.72
52935;BME280;38802;50.198;19.796;2022-12-18T05:06:12;97738.75;;;-5.71;87.91
52935;BME280;38802;50.198;19.796;2022-12-18T05:08:40;97736.88;;;-5.72;87.89
52935;BME280;38802;50.198;19.796;2022-12-18T05:11:11;97741.44;;;-5.75;87.77
52935;BME280;38802;50.198;19.796;2022-12-18T05:13:40;97747.33;;;-5.79;87.81
52935;BME280;38802;50.198;19.796;2022-12-18T05:16:09;97754.95;;;-5.80;87.88
52935;BME280;38802;50.198;19.796;2022-12-18T05:18:37;97753.61;;;-5.78;87.86
52935;BME280;38802;50.198;19.796;2022-12-18T05:21:06;97755.65;;;-5.76;88.14
52935;BME280;38802;50.198;19.796;2022-12-18T05:23:34;97755.65;;;-5.77;87.63
52935;BME280;38802;50.198;19.796;2022-12-18T05:26:04;97756.49;;;-5.77;88.00
52935;BME280;38802;50.198;19.796;2022-12-18T05:28:35;97755.83;;;-5.74;88.12
52935;BME280;38802;50.198;19.796;2022-12-18T05:31:04;97754.80;;;-5.75;87.72
52935;BME280;38802;50.198;19.796;2022-12-18T05:33:33;97755.87;;;-5.67;88.20
52935;BME280;38802;50.198;19.796;2022-12-18T05:36:05;97760.67;;;-5.59;88.41
52935;BME280;38802;50.198;19.796;2022-12-18T05:38:36;97764.26;;;-5.54;88.19
52935;BME280;38802;50.198;19.796;2022-12-18T05:41:05;97765.09;;;-5.57;87.93
52935;BME280;38802;50.198;19.796;2022-12-18T05:43:39;97765.92;;;-5.60;87.84
52935;BME280;38802;50.198;19.796;2022-12-18T05:46:12;97768.29;;;-5.62;87.72
52935;BME280;38802;50.198;19.796;2022-12-18T05:48:42;97773.33;;;-5.64;87.99
52935;BME280;38802;50.198;19.796;2022-12-18T05:51:16;97776.02;;;-5.65;87.71
52935;BME280;38802;50.198;19.796;2022-12-18T05:53:45;97780.23;;;-5.70;87.86
52935;BME280;38802;50.198;19.796;2022-12-18T05:56:18;97781.92;;;-5.70;88.00
52935;BME280;38802;50.198;19.796;2022-12-18T05:58:51;97785.48;;;-5.71;88.08
52935;BME280;38802;50.198;19.796;2022-12-18T06:01:23;97790.05;;;-5.70;87.78
52935;BME280;38802;50.198;19.796;2022-12-18T06:03:52;97789.02;;;-5.70;87.83
52935;BME280;38802;50.198;19.796;2022-12-18T06:06:23;97791.58;;;-5.69;87.86
52935;BME280;38802;50.198;19.796;2022-12-18T06:08:53;97794.13;;;-5.66;87.95
52935;BME280;38802;50.198;19.796;2022-12-18T06:11:24;97796.33;;;-5.66;87.85
52935;BME280;38802;50.198;19.796;2022-12-18T06:13:54;97799.02;;;-5.68;87.86
52935;BME280;38802;50.198;19.796;2022-12-18T06:16:27;97803.42;;;-5.70;88.05
52935;BME280;38802;50.198;19.796;2022-12-18T06:18:57;97807.64;;;-5.71;87.75
52935;BME280;38802;50.198;19.796;2022-12-18T06:21:26;97813.05;;;-5.71;88.05
52935;BME280;38802;50.198;19.796;2022-12-18T06:23:55;97812.71;;;-5.73;87.93
52935;BME280;38802;50.198;19.796;2022-12-18T06:26:23;97816.23;;;-5.77;87.90
52935;BME280;38802;50.198;19.796;2022-12-18T06:28:55;97814.88;;;-5.78;87.86
52935;BME280;38802;50.198;19.796;2022-12-18T06:31:25;97816.91;;;-5.78;87.62
52935;BME280;38802;50.198;19.796;2022-12-18T06:33:54;97817.25;;;-5.77;87.87
52935;BME280;38802;50.198;19.796;2022-12-18T06:36:22;97821.67;;;-5.75;87.84
52935;BME280;38802;50.198;19.796;2022-12-18T06:38:50;97824.21;;;-5.75;87.75
52935;BME280;38802;50.198;19.796;2022-12-18T06:41:20;97832.34;;;-5.74;87.72
52935;BME280;38802;50.198;19.796;2022-12-18T06:43:49;97836.22;;;-5.76;87.59
52935;BME280;38802;50.198;19.796;2022-12-18T06:46:20;97839.95;;;-5.73;87.76
52935;BME280;38802;50.198;19.796;2022-12-18T06:48:49;97844.05;;;-5.70;87.87
52935;BME280;38802;50.198;19.796;2022-12-18T06:51:22;97845.08;;;-5.69;87.66
52935;BME280;38802;50.198;19.796;2022-12-18T06:53:51;97847.26;;;-5.70;87.59
52935;BME280;38802;50.198;19.796;2022-12-18T06:56:19;97849.48;;;-5.69;87.75
52935;BME280;38802;50.198;19.796;2022-12-18T06:58:47;97852.05;;;-5.64;87.90
52935;BME280;38802;50.198;19.796;2022-12-18T07:01:15;97854.93;;;-5.65;87.51
52935;BME280;38802;50.198;19.796;2022-12-18T07:03:44;97858.63;;;-5.67;87.72
52935;BME280;38802;50.198;19.796;2022-12-18T07:06:14;97863.89;;;-5.65;87.84
52935;BME280;38802;50.198;19.796;2022-12-18T07:08:44;97869.45;;;-5.69;87.59
52935;BME280;38802;50.198;19.796;2022-12-18T07:11:12;97871.28;;;-5.73;87.37
52935;BME280;38802;50.198;19.796;2022-12-18T07:13:41;97875.50;;;-5.75;87.37
52935;BME280;38802;50.198;19.796;2022-12-18T07:16:20;97878.55;;;-5.74;87.58
52935;BME280;38802;50.198;19.796;2022-12-18T07:18:54;97878.90;;;-5.72;87.62
52935;BME280;38802;50.198;19.796;2022-12-18T07:21:23;97877.23;;;-5.71;87.73
52935;BME280;38802;50.198;19.796;2022-12-18T07:23:52;97883.14;;;-5.71;87.70
52935;BME280;38802;50.198;19.796;2022-12-18T07:26:21;97881.48;;;-5.68;87.51
52935;BME280;38802;50.198;19.796;2022-12-18T07:28:50;97883.86;;;-5.66;87.44
52935;BME280;38802;50.198;19.796;2022-12-18T07:31:20;97892.48;;;-5.66;87.29
52935;BME280;38802;50.198;19.796;2022-12-18T07:33:50;97903.66;;;-5.68;87.27
52935;BME280;38802;50.198;19.796;2022-12-18T07:36:22;97909.57;;;-5.68;87.29
52935;BME280;38802;50.198;19.796;2022-12-18T07:38:51;97915.86;;;-5.65;87.60
52935;BME280;38802;50.198;19.796;2022-12-18T07:41:20;97916.23;;;-5.63;87.17
52935;BME280;38802;50.198;19.796;2022-12-18T07:43:48;97922.31;;;-5.64;87.44
52935;BME280;38802;50.198;19.796;2022-12-18T07:46:18;97925.59;;;-5.60;87.39
52935;BME280;38802;50.198;19.796;2022-12-18T07:48:46;97929.48;;;-5.58;87.10
52935;BME280;38802;50.198;19.796;2022-12-18T07:51:17;97929.02;;;-5.55;87.18
52935;BME280;38802;50.198;19.796;2022-12-18T07:53:47;97928.52;;;-5.52;87.40
52935;BME280;38802;50.198;19.796;2022-12-18T07:56:38;97926.34;;;-5.50;87.20
52935;BME280;38802;50.198;19.796;2022-12-18T07:59:06;97929.07;;;-5.48;87.47
52935;BME280;38802;50.198;19.796;2022-12-18T08:01:34;97928.21;;;-5.48;86.92
52935;BME280;38802;50.198;19.796;2022-12-18T08:04:03;97928.21;;;-5.48;87.27
52935;BME280;38802;50.198;19.796;2022-12-18T08:06:31;97929.25;;;-5.45;87.53
52935;BME280;38802;50.198;19.796;2022-12-18T08:08:59;97929.94;;;-5.44;87.36
52935;BME280;38802;50.198;19.796;2022-12-18T08:11:28;97929.27;;;-5.43;87.33
52935;BME280;38802;50.198;19.796;2022-12-18T08:13:57;97932.84;;;-5.42;87.39
52935;BME280;38802;50.198;19.796;2022-12-18T08:16:26;97935.23;;;-5.38;87.26
52935;BME280;38802;50.198;19.796;2022-12-18T08:18:55;97938.85;;;-5.29;87.59
52935;BME280;38802;50.198;19.796;2022-12-18T08:21:26;97935.89;;;-5.20;87.34
52935;BME280;38802;50.198;19.796;2022-12-18T08:23:57;97941.53;;;-5.12;87.45
52935;BME280;38802;50.198;19.796;2022-12-18T08:26:27;97940.05;;;-5.06;87.74
52935;BME280;38802;50.198;19.796;2022-12-18T08:28:58;97945.86;;;-4.95;87.41
52935;BME280;38802;50.198;19.796;2022-12-18T08:31:29;97946.91;;;-4.90;87.24
52935;BME280;38802;50.198;19.796;2022-12-18T08:33:57;97949.47;;;-4.88;87.30
52935;BME280;38802;50.198;19.796;2022-12-18T08:36:25;97952.69;;;-4.88;87.27
52935;BME280;38802;50.198;19.796;2022-12-18T08:38:55;97952.86;;;-4.88;86.59
52935;BME280;38802;50.198;19.796;2022-12-18T08:41:24;97946.41;;;-4.89;87.15
52935;BME280;38802;50.198;19.796;2022-12-18T08:43:52;97952.38;;;-4.83;87.45
52935;BME280;38802;50.198;19.796;2022-12-18T08:46:40;97956.98;;;-4.81;87.09
52935;BME280;38802;50.198;19.796;2022-12-18T08:49:10;97959.83;;;-4.84;87.20
52935;BME280;38802;50.198;19.796;2022-12-18T08:51:38;97966.75;;;-4.90;86.28
52935;BME280;38802;50.198;19.796;2022-12-18T08:54:09;97965.89;;;-4.90;86.87
52935;BME280;38802;50.198;19.796;2022-12-18T08:56:38;97966.92;;;-4.89;87.14
52935;BME280;38802;50.198;19.796;2022-12-18T08:59:06;97968.46;;;-4.86;86.89
52935;BME280;38802;50.198;19.796;2022-12-18T09:01:34;97973.88;;;-4.87;87.03
52935;BME280;38802;50.198;19.796;2022-12-18T09:04:03;97976.77;;;-4.88;86.63
52935;BME280;38802;50.198;19.796;2022-12-18T09:06:33;97977.16;;;-4.79;87.15
52935;BME280;38802;50.198;19.796;2022-12-18T09:09:03;97982.81;;;-4.73;86.95
52935;BME280;38802;50.198;19.796;2022-12-18T09:11:32;97983.17;;;-4.69;86.58
52935;BME280;38802;50.198;19.796;2022-12-18T09:14:01;97983.52;;;-4.65;86.92
52935;BME280;38802;50.198;19.796;2022-12-18T09:16:29;97982.88;;;-4.59;87.15
52935;BME280;38802;50.198;19.796;2022-12-18T09:18:59;97988.17;;;-4.54;86.75
52935;BME280;38802;50.198;19.796;2022-12-18T09:21:31;97992.09;;;-4.47;87.07
52935;BME280;38802;50.198;19.796;2022-12-18T09:24:04;97987.55;;;-4.39;87.10
52935;BME280;38802;50.198;19.796;2022-12-18T09:26:36;97984.68;;;-4.35;86.61
52935;BME280;38802;50.198;19.796;2022-12-18T09:29:05;97984.69;;;-4.35;86.76
52935;BME280;38802;50.198;19.796;2022-12-18T09:31:35;97988.61;;;-4.33;86.69
52935;BME280;38802;50.198;19.796;2022-12-18T09:34:04;97987.98;;;-4.24;86.70
52935;BME280;38802;50.198;19.796;2022-12-18T09:36:32;97985.98;;;-4.12;86.98
52935;BME280;38802;50.198;19.796;2022-12-18T09:39:01;97985.65;;;-4.09;86.49
52935;BME280;38802;50.198;19.796;2022-12-18T09:41:52;97985.30;;;-4.12;86.35
52935;BME280;38802;50.198;19.796;2022-12-18T09:44:35;97986.50;;;-4.08;86.67
52935;BME280;38802;50.198;19.796;2022-12-18T09:49:53;97991.42;;;-4.08;85.82
52935;BME280;38802;50.198;19.796;2022-12-18T09:52:34;97995.48;;;-4.14;85.63
52935;BME280;38802;50.198;19.796;2022-12-18T09:58:28;97998.17;;;-4.20;86.17
52935;BME280;38802;50.198;19.796;2022-12-18T10:00:59;97998.00;;;-4.20;85.90
52935;BME280;38802;50.198;19.796;2022-12-18T10:03:27;98000.72;;;-4.20;85.42
52935;BME280;38802;50.198;19.796;2022-12-18T10:22:51;98006.64;;;-4.25;85.70
52935;BME280;38802;50.198;19.796;2022-12-18T10:28:08;97997.34;;;-4.14;85.94
52935;BME280;38802;50.198;19.796;2022-12-18T10:30:39;97991.76;;;-4.10;85.59
52935;BME280;38802;50.198;19.796;2022-12-18T10:33:20;97988.70;;;-4.11;85.40
52935;BME280;38802;50.198;19.796;2022-12-18T10:35:50;97989.04;;;-4.14;85.39
52935;BME280;38802;50.198;19.796;2022-12-18T10:43:32;97991.35;;;-4.29;84.82
52935;BME280;38802;50.198;19.796;2022-12-18T10:51:07;97990.67;;;-4.31;84.70
52935;BME280;38802;50.198;19.796;2022-12-18T10:53:41;97986.38;;;-4.34;84.72
52935;BME280;38802;50.198;19.796;2022-12-18T10:56:11;97985.25;;;-4.29;85.08
52935;BME280;38802;50.198;19.796;2022-12-18T10:58:40;97973.38;;;-4.27;85.34
52935;BME280;38802;50.198;19.796;2022-12-18T11:01:16;97972.37;;;-4.23;84.67
52935;BME280;38802;50.198;19.796;2022-12-18T11:06:20;97970.38;;;-4.07;85.13
52935;BME280;38802;50.198;19.796;2022-12-18T11:09:05;97967.49;;;-4.08;84.32
52935;BME280;38802;50.198;19.796;2022-12-18T11:12:28;97961.73;;;-4.05;84.83
52935;BME280;38802;50.198;19.796;2022-12-18T11:14:56;97964.95;;;-4.02;84.57
52935;BME280;38802;50.198;19.796;2022-12-18T11:17:33;97961.91;;;-4.01;84.63
52935;BME280;38802;50.198;19.796;2022-12-18T11:23:01;97951.80;;;-3.75;85.24
52935;BME280;38802;50.198;19.796;2022-12-18T11:25:31;97951.29;;;-3.69;85.00
52935;BME280;38802;50.198;19.796;2022-12-18T11:28:08;97954.17;;;-3.67;84.54
52935;BME280;38802;50.198;19.796;2022-12-18T11:31:22;97953.33;;;-3.73;84.65
52935;BME280;38802;50.198;19.796;2022-12-18T11:33:56;97954.01;;;-3.71;84.77
52935;BME280;38802;50.198;19.796;2022-12-18T11:36:46;97952.98;;;-3.67;84.40
52935;BME280;38802;50.198;19.796;2022-12-18T11:39:19;97959.28;;;-3.58;84.34
52935;BME280;38802;50.198;19.796;2022-12-18T11:41:54;97962.52;;;-3.49;84.45
52935;BME280;38802;50.198;19.796;2022-12-18T11:47:31;97967.98;;;-3.40;84.51
52935;BME280;38802;50.198;19.796;2022-12-18T11:50:19;97970.02;;;-3.41;84.24
52935;BME280;38802;50.198;19.796;2022-12-18T11:52:49;97970.51;;;-3.48;84.29
52935;BME280;38802;50.198;19.796;2022-12-18T11:55:36;97969.31;;;-3.51;84.38
52935;BME280;38802;50.198;19.796;2022-12-18T12:01:03;97959.81;;;-3.46;84.40
52935;BME280;38802;50.198;19.796;2022-12-18T12:04:04;97962.68;;;-3.53;84.02
52935;BME280;38802;50.198;19.796;2022-12-18T12:15:32;97957.74;;;-3.69;84.03
52935;BME280;38802;50.198;19.796;2022-12-18T12:20:49;97964.38;;;-3.64;84.37
52935;BME280;38802;50.198;19.796;2022-12-18T12:24:02;97968.28;;;-3.61;84.05
52935;BME280;38802;50.198;19.796;2022-12-18T12:27:03;97971.67;;;-3.63;83.78
52935;BME280;38802;50.198;19.796;2022-12-18T12:40:28;97986.45;;;-3.57;84.05
52935;BME280;38802;50.198;19.796;2022-12-18T12:43:41;97989.86;;;-3.53;83.98
52935;BME280;38802;50.198;19.796;2022-12-18T12:46:19;98000.05;;;-3.54;83.56
52935;BME280;38802;50.198;19.796;2022-12-18T12:49:01;98004.98;;;-3.54;83.67
52935;BME280;38802;50.198;19.796;2022-12-18T12:51:35;98003.28;;;-3.54;83.76
52935;BME280;38802;50.198;19.796;2022-12-18T12:54:13;98004.48;;;-3.46;83.41
52935;BME280;38802;50.198;19.796;2022-12-18T13:04:49;98008.94;;;-3.33;83.47
52935;BME280;38802;50.198;19.796;2022-12-18T13:07:27;98013.19;;;-3.35;83.54
52935;BME280;38802;50.198;19.796;2022-12-18T13:12:59;98019.81;;;-3.39;83.62
52935;BME280;38802;50.198;19.796;2022-12-18T13:23:36;98018.63;;;-3.27;83.31
52935;BME280;38802;50.198;19.796;2022-12-18T13:34:22;98031.80;;;-3.66;82.29
52935;BME280;38802;50.198;19.796;2022-12-18T13:37:35;98030.75;;;-3.80;81.74
52935;BME280;38802;50.198;19.796;2022-12-18T13:39:46;98033.27;;;-3.88;81.71
52935;BME280;38802;50.198;19.796;2022-12-18T13:45:34;98038.04;;;-3.87;82.13
52935;BME280;38802;50.198;19.796;2022-12-18T13:48:15;98050.61;;;-3.84;81.98
52935;BME280;38802;50.198;19.796;2022-12-18T13:50:49;98052.05;;;-4.00;81.28
52935;BME280;38802;50.198;19.796;2022-12-18T13:53:23;98048.27;;;-4.15;81.78
52935;BME280;38802;50.198;19.796;2022-12-18T13:55:54;98047.67;;;-4.31;81.13
52935;BME280;38802;50.198;19.796;2022-12-18T13:58:23;98052.30;;;-4.49;81.20
52935;BME280;38802;50.198;19.796;2022-12-18T14:00:51;98060.73;;;-4.57;81.27
52935;BME280;38802;50.198;19.796;2022-12-18T14:03:23;98061.05;;;-4.62;81.18
52935;BME280;38802;50.198;19.796;2022-12-18T14:06:07;98062.63;;;-4.77;80.85
52935;BME280;38802;50.198;19.796;2022-12-18T14:08:41;98065.73;;;-4.91;81.05
52935;BME280;38802;50.198;19.796;2022-12-18T14:11:22;98065.58;;;-4.89;81.38
52935;BME280;38802;50.198;19.796;2022-12-18T14:13:53;98062.70;;;-4.89;81.15
52935;BME280;38802;50.198;19.796;2022-12-18T14:16:21;98069.11;;;-4.92;81.54
52935;BME280;38802;50.198;19.796;2022-12-18T14:18:55;98071.23;;;-5.03;81.15
52935;BME280;38802;50.198;19.796;2022-12-18T14:21:46;98074.95;;;-5.23;80.80
52935;BME280;38802;50.198;19.796;2022-12-18T14:24:21;98075.68;;;-5.34;81.10
52935;BME280;38802;50.198;19.796;2022-12-18T14:26:50;98074.55;;;-5.46;80.62
52935;BME280;38802;50.198;19.796;2022-12-18T14:29:29;98069.98;;;-5.61;80.49
52935;BME280;38802;50.198;19.796;2022-12-18T14:34:41;98082.63;;;-5.65;80.97
52935;BME280;38802;50.198;19.796;2022-12-18T14:37:13;98084.10;;;-5.70;80.67
52935;BME280;38802;50.198;19.796;2022-12-18T14:39:52;98082.14;;;-5.79;80.73
52935;BME280;38802;50.198;19.796;2022-12-18T14:42:21;98082.54;;;-5.90;80.48
52935;BME280;38802;50.198;19.796;2022-12-18T14:44:50;98085.77;;;-6.03;80.27
52935;BME280;38802;50.198;19.796;2022-12-18T14:47:38;98086.27;;;-6.16;80.40
52935;BME280;38802;50.198;19.796;2022-12-18T14:50:13;98090.26;;;-6.22;80.46
52935;BME280;38802;50.198;19.796;2022-12-18T14:52:41;98090.27;;;-6.34;80.02
52935;BME280;38802;50.198;19.796;2022-12-18T14:55:20;98089.78;;;-6.45;80.31
52935;BME280;38802;50.198;19.796;2022-12-18T14:57:51;98090.58;;;-6.59;80.35
52935;BME280;38802;50.198;19.796;2022-12-18T15:00:22;98090.23;;;-6.71;80.19
52935;BME280;38802;50.198;19.796;2022-12-18T15:02:55;98089.86;;;-6.85;80.26
52935;BME280;38802;50.198;19.796;2022-12-18T15:05:31;98088.41;;;-6.90;80.31
52935;BME280;38802;50.198;19.796;2022-12-18T15:08:00;98088.65;;;-6.95;80.50
52935;BME280;38802;50.198;19.796;2022-12-18T15:10:32;98090.77;;;-7.00;80.25
52935;BME280;38802;50.198;19.796;2022-12-18T15:18:23;98097.38;;;-7.19;80.28
52935;BME280;38802;50.198;19.796;2022-12-18T15:20:58;98107.23;;;-7.25;80.48
52935;BME280;38802;50.198;19.796;2022-12-18T15:23:50;98107.31;;;-7.32;80.19
52935;BME280;38802;50.198;19.796;2022-12-18T15:26:20;98111.42;;;-7.36;80.46
52935;BME280;38802;50.198;19.796;2022-12-18T15:28:54;98113.84;;;-7.42;80.16